Time;durP1;ratioP1;P1;durP2;ratioP2;P2;SDS_P1;SDS_P2;PMS_P1;PMS_P2;Temp;Humidity;BMP_temperature;BMP_pressure;BME280_temperature;BME280_humidity;BME280_pressure;Samples;Min_cycle;Max_cycle;Signal;HPM_P1;HPM_P2
2023/07/29 00:01:39;;;;;;;8.90;7.00;;;20.70;60.20;;;;;;4985706;28;114808;-77
2023/07/29 00:04:08;;;;;;;7.15;5.50;;;20.70;60.50;;;;;;4985939;28;115039;-78
2023/07/29 00:06:35;;;;;;;9.95;6.90;;;20.80;59.10;;;;;;4985705;28;114251;-79
2023/07/29 00:09:03;;;;;;;18.92;10.98;;;20.90;59.40;;;;;;4986785;28;114121;-79
2023/07/29 00:11:32;;;;;;;7.35;5.57;;;20.90;60.70;;;;;;4982925;28;114917;-78
2023/07/29 00:14:02;;;;;;;9.90;7.00;;;21.00;58.80;;;;;;4985638;28;114559;-78
2023/07/29 00:16:29;;;;;;;7.70;5.75;;;21.00;58.70;;;;;;4985881;28;114199;-79
2023/07/29 00:18:56;;;;;;;10.82;6.85;;;21.00;58.60;;;;;;4969209;28;114404;-79
2023/07/29 00:21:23;;;;;;;9.57;6.25;;;21.10;59.40;;;;;;4985493;28;115473;-78
2023/07/29 00:23:50;;;;;;;13.77;8.20;;;21.10;58.50;;;;;;4984224;28;114538;-78
2023/07/29 00:26:17;;;;;;;8.07;5.18;;;21.20;59.50;;;;;;4985683;28;114319;-79
2023/07/29 00:28:44;;;;;;;9.18;6.40;;;21.20;57.80;;;;;;4986847;28;114663;-78
2023/07/29 00:31:11;;;;;;;13.40;8.00;;;21.20;58.40;;;;;;4984282;28;114389;-79
2023/07/29 00:33:38;;;;;;;8.02;5.05;;;21.30;59.40;;;;;;4985335;28;114820;-79
2023/07/29 00:36:05;;;;;;;11.50;6.20;;;21.20;57.80;;;;;;4984168;28;116989;-78
2023/07/29 00:38:33;;;;;;;11.85;8.27;;;21.20;58.30;;;;;;4984880;28;114349;-78
2023/07/29 00:41:02;;;;;;;9.10;5.68;;;21.30;59.30;;;;;;4985275;28;115668;-78
2023/07/29 00:43:29;;;;;;;8.48;6.05;;;21.30;57.50;;;;;;4984177;28;117377;-80
2023/07/29 00:45:57;;;;;;;7.90;5.40;;;21.30;58.20;;;;;;4984825;28;114467;-77
2023/07/29 00:48:25;;;;;;;13.43;8.10;;;21.30;57.20;;;;;;4968089;28;114401;-77
2023/07/29 00:50:55;;;;;;;5.82;4.60;;;21.30;59.50;;;;;;4985280;28;114867;-78
2023/07/29 00:53:22;;;;;;;8.55;5.57;;;21.30;57.30;;;;;;4984368;28;115900;-78
2023/07/29 00:55:49;;;;;;;8.27;5.75;;;21.40;57.70;;;;;;4984335;28;114374;-78
2023/07/29 00:58:17;;;;;;;10.32;6.50;;;21.40;57.80;;;;;;4984671;28;114582;-78
2023/07/29 01:00:44;;;;;;;8.25;4.85;;;21.40;58.80;;;;;;4984404;28;115097;-78
2023/07/29 01:03:11;;;;;;;8.38;6.22;;;21.40;57.10;;;;;;4967392;28;114566;-79
2023/07/29 01:05:59;;;;;;;15.18;8.02;;;21.40;57.80;;;;;;4968520;28;114368;-79
2023/07/29 01:08:42;;;;;;;6.70;5.07;;;21.50;59.10;;;;;;4985698;28;114246;-79
2023/07/29 01:11:22;;;;;;;11.10;7.10;;;21.40;57.40;;;;;;4983907;28;114938;-79
2023/07/29 01:13:54;;;;;;;8.75;5.50;;;21.30;58.20;;;;;;4983632;28;114647;-78
2023/07/29 01:16:32;;;;;;;8.10;5.70;;;21.30;57.40;;;;;;4968471;28;114197;-78
2023/07/29 01:19:01;;;;;;;13.23;6.65;;;21.30;57.50;;;;;;4968847;28;114496;-79
2023/07/29 01:21:28;;;;;;;8.82;5.93;;;21.30;58.20;;;;;;4984120;28;116107;-79
2023/07/29 01:23:58;;;;;;;9.82;5.90;;;21.30;57.40;;;;;;4970684;28;114732;-79
2023/07/29 01:26:27;;;;;;;9.95;6.90;;;21.30;57.10;;;;;;4970900;28;114244;-79
2023/07/29 01:28:54;;;;;;;10.85;6.30;;;21.30;58.50;;;;;;4988992;28;114272;-79
2023/07/29 01:31:44;;;;;;;8.13;5.57;;;21.30;57.80;;;;;;4986782;28;114998;-78
2023/07/29 01:34:28;;;;;;;6.57;4.78;;;21.30;57.70;;;;;;4986533;28;115170;-78
2023/07/29 01:36:55;;;;;;;8.48;5.78;;;21.30;57.20;;;;;;4986767;28;114820;-79
2023/07/29 01:39:23;;;;;;;8.23;5.40;;;21.20;58.20;;;;;;4987803;28;114486;-78
2023/07/29 01:41:50;;;;;;;8.80;5.75;;;21.20;57.70;;;;;;4986408;28;114920;-79
2023/07/29 01:44:18;;;;;;;8.32;5.57;;;21.20;57.60;;;;;;4970582;28;114668;-78
2023/07/29 01:46:45;;;;;;;11.25;7.63;;;21.10;58.10;;;;;;4971090;28;114194;-79
2023/07/29 01:49:12;;;;;;;9.10;5.80;;;21.10;59.10;;;;;;4986908;28;114441;-78
2023/07/29 01:51:39;;;;;;;16.85;12.60;;;21.10;57.90;;;;;;4986236;28;114910;-79
2023/07/29 01:54:06;;;;;;;10.48;6.75;;;21.10;59.60;;;;;;4970355;28;115567;-78
2023/07/29 01:56:37;;;;;;;7.38;5.78;;;21.00;58.40;;;;;;4987498;28;114304;-78
2023/07/29 01:59:04;;;;;;;16.10;10.93;;;20.90;58.20;;;;;;4970784;28;114527;-78
2023/07/29 02:01:31;;;;;;;14.80;9.93;;;20.90;59.50;;;;;;4969916;28;114974;-78
2023/07/29 02:03:58;;;;;;;8.90;6.05;;;20.90;59.70;;;;;;4970516;28;114696;-78
2023/07/29 02:06:27;;;;;;;9.23;6.55;;;20.80;58.40;;;;;;4970774;28;114140;-78
2023/07/29 02:08:55;;;;;;;8.55;6.15;;;20.90;58.50;;;;;;4971144;28;114567;-78
2023/07/29 02:11:27;;;;;;;12.05;7.70;;;21.00;58.50;;;;;;4986445;28;114860;-79
2023/07/29 02:13:55;;;;;;;17.97;11.37;;;21.10;58.70;;;;;;4986616;28;114701;-78
2023/07/29 02:16:22;;;;;;;13.00;8.77;;;21.10;59.60;;;;;;4986852;28;114361;-78
2023/07/29 02:18:50;;;;;;;16.85;12.40;;;21.10;58.70;;;;;;4987033;28;114430;-78
2023/07/29 02:21:20;;;;;;;11.63;8.30;;;21.10;59.10;;;;;;4986203;28;115586;-79
2023/07/29 02:23:47;;;;;;;7.95;5.75;;;21.20;58.30;;;;;;4986058;28;114588;-78
2023/07/29 02:26:15;;;;;;;10.80;6.63;;;21.20;57.50;;;;;;4988298;28;114254;-79
2023/07/29 02:28:43;;;;;;;9.25;5.50;;;21.20;57.50;;;;;;4969923;28;114378;-79
2023/07/29 02:31:13;;;;;;;16.73;12.43;;;21.20;57.10;;;;;;4987107;28;114800;-78
2023/07/29 02:33:40;;;;;;;7.43;6.15;;;21.30;59.30;;;;;;4985028;28;114537;-79
2023/07/29 02:36:08;;;;;;;8.77;6.00;;;21.20;57.50;;;;;;4985431;28;114439;-79
2023/07/29 02:38:35;;;;;;;9.48;7.75;;;21.30;57.40;;;;;;4987959;28;114188;-78
2023/07/29 02:41:02;;;;;;;10.95;7.10;;;21.20;58.70;;;;;;4985277;28;114925;-79
2023/07/29 02:43:29;;;;;;;9.35;5.95;;;21.20;58.00;;;;;;4985898;28;114170;-78
2023/07/29 02:45:56;;;;;;;9.60;7.03;;;21.20;57.40;;;;;;4986571;28;114452;-79
2023/07/29 02:48:24;;;;;;;8.15;5.95;;;21.20;57.50;;;;;;4970150;28;114246;-79
2023/07/29 02:50:51;;;;;;;11.57;8.02;;;21.30;57.10;;;;;;4985835;28;114812;-78
2023/07/29 02:53:21;;;;;;;12.57;8.60;;;21.30;57.40;;;;;;4987167;28;115077;-79
2023/07/29 02:55:48;;;;;;;16.08;11.23;;;21.30;57.40;;;;;;4969497;28;114223;-78
2023/07/29 02:58:15;;;;;;;12.13;7.90;;;21.30;58.40;;;;;;4986836;28;114335;-79
2023/07/29 03:00:43;;;;;;;12.38;7.88;;;21.20;57.60;;;;;;4985201;28;115194;-79
2023/07/29 03:03:10;;;;;;;15.98;10.68;;;21.20;57.50;;;;;;4985510;28;114680;-79
2023/07/29 03:05:38;;;;;;;11.23;7.35;;;21.20;58.70;;;;;;4986025;28;114494;-78
2023/07/29 03:08:05;;;;;;;8.55;5.68;;;21.10;58.00;;;;;;4987384;28;114931;-79
2023/07/29 03:10:35;;;;;;;9.98;6.90;;;21.10;57.50;;;;;;4986406;28;115142;-78
2023/07/29 03:13:02;;;;;;;12.05;7.47;;;21.10;57.50;;;;;;4968643;28;115182;-79
2023/07/29 03:15:29;;;;;;;9.02;6.45;;;21.10;57.50;;;;;;4986179;28;114596;-79
2023/07/29 03:17:56;;;;;;;12.63;8.43;;;21.20;57.70;;;;;;4987489;28;114261;-78
2023/07/29 03:20:23;;;;;;;11.75;8.13;;;21.20;58.10;;;;;;4986913;28;115338;-78
2023/07/29 03:22:51;;;;;;;10.48;7.28;;;21.20;58.60;;;;;;4985831;28;114783;-79
2023/07/29 03:25:19;;;;;;;15.48;10.57;;;21.20;58.30;;;;;;4985980;28;114247;-78
2023/07/29 03:27:49;;;;;;;11.93;7.15;;;21.20;59.50;;;;;;4985818;28;114496;-78
2023/07/29 03:30:20;;;;;;;8.50;6.40;;;21.20;58.40;;;;;;4984814;28;115073;-78
2023/07/29 03:32:49;;;;;;;10.40;5.82;;;21.10;57.50;;;;;;4969151;28;114836;-78
2023/07/29 03:35:16;;;;;;;11.77;7.22;;;21.20;57.30;;;;;;4968860;28;114274;-78
2023/07/29 03:37:43;;;;;;;11.75;6.95;;;21.20;58.40;;;;;;4968944;28;114745;-79
2023/07/29 03:40:10;;;;;;;10.65;6.35;;;21.20;57.90;;;;;;4968305;28;115086;-77
2023/07/29 03:42:37;;;;;;;9.32;5.75;;;21.20;57.90;;;;;;4984625;28;114692;-78
2023/07/29 03:45:05;;;;;;;8.13;5.72;;;21.10;57.80;;;;;;4985649;28;114415;-79
2023/07/29 03:47:32;;;;;;;8.90;5.63;;;21.10;58.40;;;;;;4987351;28;114344;-78
2023/07/29 03:50:00;;;;;;;7.18;5.50;;;21.20;59.40;;;;;;4984695;28;114864;-78
2023/07/29 03:52:27;;;;;;;9.00;5.50;;;21.40;58.00;;;;;;4984624;28;114616;-78
2023/07/29 03:54:54;;;;;;;8.68;5.45;;;21.70;58.10;;;;;;4985005;28;114281;-79
2023/07/29 03:57:21;;;;;;;7.68;5.53;;;21.90;57.10;;;;;;4986413;28;114192;-79
2023/07/29 03:59:48;;;;;;;8.50;5.25;;;22.20;56.00;;;;;;4968308;28;114859;-78
2023/07/29 04:02:15;;;;;;;8.90;6.18;;;22.30;55.90;;;;;;4984806;28;114991;-78
2023/07/29 04:04:47;;;;;;;10.07;7.15;;;22.50;56.40;;;;;;4969137;28;114395;-79
2023/07/29 04:07:14;;;;;;;12.07;8.32;;;22.60;55.40;;;;;;4969969;28;114523;-78
2023/07/29 04:09:43;;;;;;;8.77;5.97;;;22.60;56.00;;;;;;4984833;28;115051;-79
2023/07/29 04:12:10;;;;;;;10.02;6.72;;;22.70;55.20;;;;;;4968322;28;114865;-79
2023/07/29 04:14:37;;;;;;;8.85;6.18;;;22.80;55.40;;;;;;4986495;28;114220;-79
2023/07/29 04:17:05;;;;;;;11.57;7.28;;;22.90;54.80;;;;;;4968579;28;114254;-79
2023/07/29 04:19:32;;;;;;;8.88;5.85;;;23.10;55.00;;;;;;4983401;28;116475;-79
2023/07/29 04:22:00;;;;;;;12.93;6.78;;;23.30;53.60;;;;;;4984091;28;114571;-78
2023/07/29 04:24:27;;;;;;;8.15;5.05;;;23.30;54.40;;;;;;4968887;28;114172;-79
2023/07/29 04:26:54;;;;;;;9.48;5.13;;;23.40;54.50;;;;;;4984777;28;114461;-79
2023/07/29 04:29:22;;;;;;;10.60;6.00;;;23.50;54.40;;;;;;4984052;28;114952;-79
2023/07/29 04:31:53;;;;;;;10.52;5.50;;;23.50;54.40;;;;;;4984344;28;114621;-79
2023/07/29 04:34:20;;;;;;;6.70;4.60;;;23.50;54.20;;;;;;4985251;28;114207;-79
2023/07/29 04:36:47;;;;;;;6.85;4.60;;;23.40;54.10;;;;;;4985010;28;114362;-78
2023/07/29 04:39:15;;;;;;;6.97;4.35;;;23.30;54.50;;;;;;4951245;28;114939;-78
2023/07/29 04:41:42;;;;;;;7.68;4.70;;;23.20;54.20;;;;;;4983935;28;114640;-79
2023/07/29 04:44:09;;;;;;;6.47;4.03;;;23.20;52.90;;;;;;4967735;28;114318;-79
2023/07/29 04:46:36;;;;;;;7.18;4.68;;;23.20;54.40;;;;;;4984970;28;114240;-78
2023/07/29 04:49:04;;;;;;;6.35;4.35;;;23.10;54.20;;;;;;4985394;28;114873;-77
2023/07/29 04:51:34;;;;;;;5.20;3.70;;;23.00;53.10;;;;;;4984857;28;116775;-78
2023/07/29 04:54:00;;;;;;;6.43;4.28;;;23.00;54.10;;;;;;4986503;28;114535;-78
2023/07/29 04:56:28;;;;;;;5.80;3.80;;;23.00;53.50;;;;;;4986000;28;114200;-78
2023/07/29 04:58:55;;;;;;;6.65;4.40;;;23.10;54.50;;;;;;4971411;28;114934;-78
2023/07/29 05:01:22;;;;;;;6.63;4.03;;;23.10;53.40;;;;;;4987848;28;114677;-77
2023/07/29 05:03:49;;;;;;;6.25;4.07;;;23.20;54.60;;;;;;4989298;28;114572;-78
2023/07/29 05:06:16;;;;;;;6.35;4.07;;;23.30;54.60;;;;;;4988078;28;114387;-78
2023/07/29 05:08:43;;;;;;;5.70;4.25;;;23.30;54.00;;;;;;4986545;28;115000;-77
2023/07/29 05:11:10;;;;;;;5.47;3.70;;;23.40;54.60;;;;;;4987386;28;114704;-78
2023/07/29 05:13:38;;;;;;;5.68;3.75;;;23.50;54.30;;;;;;4989871;28;114311;-78
2023/07/29 05:16:09;;;;;;;5.65;3.95;;;23.60;53.80;;;;;;4988312;28;114032;-78
2023/07/29 05:18:36;;;;;;;7.53;3.85;;;23.70;54.10;;;;;;4986775;28;115135;-78
2023/07/29 05:21:04;;;;;;;6.18;3.67;;;23.70;53.80;;;;;;4954442;28;116912;-77
2023/07/29 05:23:31;;;;;;;5.93;3.70;;;23.80;53.60;;;;;;4988074;28;114207;-78
2023/07/29 05:25:58;;;;;;;4.50;3.40;;;23.90;53.70;;;;;;4956108;28;114347;-78
2023/07/29 05:28:25;;;;;;;5.55;3.38;;;24.10;53.60;;;;;;4986892;28;115013;-78
2023/07/29 05:30:53;;;;;;;5.90;3.60;;;24.30;53.10;;;;;;4988041;28;114706;-80
2023/07/29 05:33:20;;;;;;;5.07;3.20;;;24.40;52.70;;;;;;4954509;28;114286;-79
2023/07/29 05:35:48;;;;;;;6.10;3.60;;;24.60;52.30;;;;;;4970873;28;114301;-78
2023/07/29 05:38:15;;;;;;;7.15;3.75;;;24.80;51.90;;;;;;4986594;28;114851;-79
2023/07/29 05:40:42;;;;;;;7.90;4.28;;;24.90;51.70;;;;;;4986810;28;114696;-80
2023/07/29 05:43:10;;;;;;;7.57;5.15;;;25.00;51.30;;;;;;4990766;28;114371;-79
2023/07/29 05:45:37;;;;;;;11.10;5.45;;;25.00;51.80;;;;;;4988791;28;114185;-79
2023/07/29 05:48:04;;;;;;;10.90;6.55;;;25.00;51.60;;;;;;4986209;28;115174;-79
2023/07/29 05:50:32;;;;;;;10.38;6.75;;;25.00;51.60;;;;;;4987014;28;114755;-80
2023/07/29 05:53:00;;;;;;;14.48;7.10;;;25.10;51.40;;;;;;4987047;28;114243;-79
2023/07/29 05:55:27;;;;;;;9.65;6.78;;;25.20;51.00;;;;;;4987271;28;114220;-79
2023/07/29 05:57:54;;;;;;;14.57;6.50;;;25.20;51.00;;;;;;4953419;28;116956;-79
2023/07/29 06:00:22;;;;;;;13.00;6.35;;;25.00;51.30;;;;;;4969347;28;116640;-78
2023/07/29 06:02:49;;;;;;;10.48;6.63;;;24.80;51.70;;;;;;4970650;28;114219;-79
2023/07/29 06:05:20;;;;;;;9.10;5.57;;;24.80;52.10;;;;;;4987140;28;114231;-79
2023/07/29 06:07:48;;;;;;;10.02;5.80;;;24.80;52.10;;;;;;4986118;28;115126;-78
2023/07/29 06:10:18;;;;;;;10.57;5.75;;;24.90;52.20;;;;;;4987288;28;114606;-78
2023/07/29 06:12:47;;;;;;;7.18;4.97;;;25.00;52.00;;;;;;4970823;28;114353;-78
2023/07/29 06:15:14;;;;;;;8.73;4.45;;;25.20;51.80;;;;;;4986920;28;114682;-78
2023/07/29 06:17:41;;;;;;;9.68;4.70;;;25.30;51.20;;;;;;4985075;28;115714;-79
2023/07/29 06:20:09;;;;;;;8.15;4.45;;;25.50;50.80;;;;;;4987197;28;114737;-80
2023/07/29 06:22:36;;;;;;;7.70;4.78;;;25.80;50.30;;;;;;4987419;28;114091;-77
2023/07/29 06:25:04;;;;;;;7.07;4.30;;;25.90;50.40;;;;;;4986838;28;114489;-79
2023/07/29 06:27:31;;;;;;;6.13;4.07;;;26.00;49.90;;;;;;4985908;28;114927;-79
2023/07/29 06:29:58;;;;;;;7.28;4.30;;;26.10;49.30;;;;;;4985895;28;115029;-79
2023/07/29 06:32:25;;;;;;;6.35;3.47;;;26.30;49.20;;;;;;4986482;28;114271;-79
2023/07/29 06:34:54;;;;;;;5.13;3.10;;;26.40;48.60;;;;;;4985993;28;114349;-79
2023/07/29 06:37:21;;;;;;;5.70;3.30;;;26.60;48.30;;;;;;4984673;28;117238;-79
2023/07/29 06:39:48;;;;;;;5.50;2.92;;;26.60;48.10;;;;;;4969503;28;114921;-79
2023/07/29 06:42:15;;;;;;;5.10;2.60;;;26.50;47.90;;;;;;4987699;28;114230;-79
2023/07/29 06:44:45;;;;;;;4.65;2.55;;;26.40;48.00;;;;;;4986425;28;114405;-80
2023/07/29 06:47:12;;;;;;;3.38;2.15;;;26.40;48.10;;;;;;4986033;28;114720;-79
2023/07/29 06:49:39;;;;;;;3.78;2.22;;;26.50;47.80;;;;;;4986715;28;114694;-79
2023/07/29 06:52:07;;;;;;;5.43;3.28;;;26.60;48.00;;;;;;4986172;28;114162;-78
2023/07/29 06:54:34;;;;;;;4.70;2.78;;;26.70;48.00;;;;;;4986207;28;114340;-79
2023/07/29 06:57:01;;;;;;;5.05;2.38;;;26.80;47.20;;;;;;4986518;28;115023;-79
2023/07/29 06:59:28;;;;;;;5.65;2.33;;;26.80;46.70;;;;;;4985462;28;114556;-78
2023/07/29 07:01:55;;;;;;;3.60;2.15;;;26.80;46.70;;;;;;4987258;28;114225;-78
2023/07/29 07:04:22;;;;;;;3.13;1.98;;;26.70;47.40;;;;;;4986582;28;114007;-79
2023/07/29 07:06:49;;;;;;;4.05;2.33;;;26.60;46.80;;;;;;4985012;28;117763;-79
2023/07/29 07:09:16;;;;;;;3.67;2.05;;;26.50;47.00;;;;;;4986392;28;114620;-79
2023/07/29 07:11:43;;;;;;;2.90;2.00;;;26.50;47.10;;;;;;4985561;28;114575;-79
2023/07/29 07:14:10;;;;;;;3.97;2.13;;;26.40;46.70;;;;;;4985499;28;114368;-79
2023/07/29 07:16:39;;;;;;;3.47;1.90;;;26.30;46.70;;;;;;4985995;28;114872;-79
2023/07/29 07:19:06;;;;;;;3.25;2.00;;;26.30;47.10;;;;;;4984391;28;115206;-79
2023/07/29 07:21:34;;;;;;;2.70;1.95;;;26.20;47.10;;;;;;4969120;28;114417;-78
2023/07/29 07:24:01;;;;;;;5.57;2.22;;;26.10;46.80;;;;;;4969437;28;114439;-78
2023/07/29 07:26:28;;;;;;;4.13;2.05;;;26.00;47.30;;;;;;4986074;28;114976;-80
2023/07/29 07:28:55;;;;;;;5.25;2.25;;;25.90;47.70;;;;;;4985380;28;114902;-77
2023/07/29 07:31:22;;;;;;;3.00;2.05;;;25.80;47.60;;;;;;4986012;28;114596;-80
2023/07/29 07:33:49;;;;;;;3.42;2.00;;;25.90;48.00;;;;;;4987656;28;114058;-78
2023/07/29 07:36:16;;;;;;;3.55;2.35;;;25.80;48.00;;;;;;4984281;28;115145;-78
2023/07/29 07:38:43;;;;;;;3.72;2.10;;;25.80;48.40;;;;;;4986065;28;114653;-78
2023/07/29 07:41:10;;;;;;;4.25;2.10;;;25.80;48.60;;;;;;4987479;28;114404;-79
2023/07/29 07:43:38;;;;;;;3.45;1.90;;;25.70;48.30;;;;;;4987447;28;114210;-79
2023/07/29 07:46:05;;;;;;;2.65;1.92;;;25.60;48.80;;;;;;4986754;28;115255;-78
2023/07/29 07:48:33;;;;;;;3.60;2.10;;;25.60;48.90;;;;;;4985050;28;114821;-78
2023/07/29 07:51:00;;;;;;;3.58;2.20;;;25.40;49.20;;;;;;4985831;28;114357;-77
2023/07/29 07:53:27;;;;;;;4.05;2.20;;;25.30;49.40;;;;;;4987832;28;114461;-78
2023/07/29 07:55:54;;;;;;;4.63;2.35;;;25.30;49.70;;;;;;4986237;28;114862;-78
2023/07/29 07:58:21;;;;;;;3.08;1.98;;;25.20;49.90;;;;;;4985223;28;114649;-78
2023/07/29 08:00:48;;;;;;;3.95;2.53;;;25.10;50.30;;;;;;4985301;28;114611;-79
2023/07/29 08:03:15;;;;;;;3.95;2.35;;;25.10;50.90;;;;;;4985535;28;114597;-79
2023/07/29 08:05:42;;;;;;;3.10;2.05;;;25.00;50.80;;;;;;4984852;28;114980;-78
2023/07/29 08:08:09;;;;;;;3.45;2.10;;;24.90;51.30;;;;;;4985027;28;114715;-77
2023/07/29 08:10:36;;;;;;;4.72;1.98;;;24.90;51.70;;;;;;4987034;28;114179;-79
2023/07/29 08:13:03;;;;;;;3.35;2.20;;;24.90;51.90;;;;;;4986965;28;114403;-78
2023/07/29 08:15:30;;;;;;;7.43;2.97;;;24.90;52.00;;;;;;4985985;28;114991;-78
2023/07/29 08:17:57;;;;;;;3.95;2.40;;;25.00;51.70;;;;;;4986624;28;114876;-77
2023/07/29 08:20:24;;;;;;;3.55;2.20;;;25.00;51.60;;;;;;4986698;28;114096;-78
2023/07/29 08:22:51;;;;;;;5.22;2.40;;;24.90;51.80;;;;;;4987051;28;114242;-78
2023/07/29 08:25:18;;;;;;;5.07;2.50;;;25.00;52.20;;;;;;4984183;28;114838;-79
2023/07/29 08:27:46;;;;;;;3.78;2.35;;;25.10;52.10;;;;;;4968555;28;115095;-79
2023/07/29 08:30:13;;;;;;;5.78;2.30;;;25.10;52.10;;;;;;4987007;28;114193;-78
2023/07/29 08:32:40;;;;;;;4.00;2.10;;;25.10;51.50;;;;;;4990071;28;114496;-78
2023/07/29 08:35:07;;;;;;;5.28;2.50;;;25.20;51.30;;;;;;4988950;28;114870;-78
2023/07/29 08:37:34;;;;;;;3.88;2.50;;;25.20;51.30;;;;;;4969444;28;117135;-79
2023/07/29 08:40:02;;;;;;;4.95;2.13;;;25.20;50.70;;;;;;4970103;28;114302;-78
2023/07/29 08:42:31;;;;;;;7.38;2.10;;;25.30;51.00;;;;;;4970169;28;114309;-79
2023/07/29 08:45:01;;;;;;;3.60;2.20;;;25.30;50.40;;;;;;4951882;28;114960;-78
2023/07/29 08:47:28;;;;;;;5.03;2.20;;;25.20;50.10;;;;;;4967860;28;114796;-78
2023/07/29 08:49:56;;;;;;;3.38;2.20;;;25.20;50.10;;;;;;4969276;28;114268;-79
2023/07/29 08:52:23;;;;;;;3.53;2.55;;;25.00;50.60;;;;;;4968624;28;115044;-78
2023/07/29 08:54:50;;;;;;;3.28;2.25;;;25.00;50.30;;;;;;4968672;28;115071;-80
2023/07/29 08:57:17;;;;;;;4.43;2.20;;;24.90;51.00;;;;;;4967866;28;114623;-79
2023/07/29 08:59:45;;;;;;;4.00;2.47;;;24.90;50.90;;;;;;4952365;28;114275;-79
2023/07/29 09:02:12;;;;;;;2.88;2.17;;;24.90;50.70;;;;;;4968264;28;114315;-78
2023/07/29 09:04:39;;;;;;;5.32;2.40;;;24.80;51.00;;;;;;4968635;28;114926;-78
2023/07/29 09:07:06;;;;;;;3.40;2.22;;;24.90;51.10;;;;;;4969969;28;114809;-77
2023/07/29 09:09:33;;;;;;;3.78;2.38;;;24.80;51.10;;;;;;4968580;28;114227;-80
2023/07/29 09:12:00;;;;;;;5.05;2.20;;;24.80;51.10;;;;;;4969522;28;114193;-78
2023/07/29 09:14:28;;;;;;;3.30;2.30;;;24.80;51.50;;;;;;4967991;28;114953;-78
2023/07/29 09:16:55;;;;;;;3.40;2.08;;;24.80;51.60;;;;;;4951033;28;116738;-79
2023/07/29 09:19:25;;;;;;;3.20;2.40;;;24.80;51.80;;;;;;4967922;28;114168;-78
2023/07/29 09:21:52;;;;;;;5.78;2.90;;;24.80;52.10;;;;;;4968135;28;114124;-79
2023/07/29 09:24:20;;;;;;;4.35;2.20;;;24.80;52.20;;;;;;4968322;28;114934;-79
2023/07/29 09:26:50;;;;;;;3.55;2.28;;;24.80;52.20;;;;;;4967001;28;114954;-80
2023/07/29 09:29:21;;;;;;;3.50;2.15;;;24.80;52.40;;;;;;4968020;28;114316;-79
2023/07/29 09:31:49;;;;;;;4.57;1.85;;;24.90;52.50;;;;;;4969615;28;114252;-79
2023/07/29 09:34:19;;;;;;;3.67;2.40;;;24.80;52.30;;;;;;4967938;28;114905;-78
2023/07/29 09:36:46;;;;;;;4.82;2.25;;;24.80;52.50;;;;;;4980753;28;114672;-79
2023/07/29 09:39:13;;;;;;;3.03;2.05;;;24.80;52.20;;;;;;4988262;28;114490;-78
2023/07/29 09:41:40;;;;;;;3.15;2.30;;;24.80;53.00;;;;;;4988496;28;114232;-78
2023/07/29 09:44:07;;;;;;;3.97;2.40;;;24.80;53.00;;;;;;4969951;28;115688;-79
2023/07/29 09:46:36;;;;;;;4.25;2.42;;;24.80;53.30;;;;;;4986285;28;114817;-78
2023/07/29 09:49:05;;;;;;;3.80;2.35;;;25.00;52.80;;;;;;4988600;28;114267;-79
2023/07/29 09:51:37;;;;;;;4.20;2.58;;;25.00;53.30;;;;;;4971085;28;114232;-79
2023/07/29 09:54:04;;;;;;;5.68;2.92;;;25.10;52.50;;;;;;4970045;28;117715;-79
2023/07/29 09:56:31;;;;;;;6.30;2.85;;;25.20;52.40;;;;;;4988002;28;114561;-79
2023/07/29 09:58:58;;;;;;;3.63;2.50;;;25.30;52.80;;;;;;4988914;28;114378;-79
2023/07/29 10:01:28;;;;;;;3.75;2.63;;;25.30;52.90;;;;;;4987124;28;114227;-79
2023/07/29 10:03:56;;;;;;;3.80;2.42;;;25.40;52.20;;;;;;4969456;28;118340;-78
2023/07/29 10:06:23;;;;;;;3.58;2.70;;;25.50;52.00;;;;;;4987710;28;114748;-77
2023/07/29 10:08:50;;;;;;;3.53;2.72;;;25.50;51.60;;;;;;4987995;28;114468;-78
2023/07/29 10:11:20;;;;;;;5.05;2.60;;;25.60;51.70;;;;;;4987221;28;114461;-77
2023/07/29 10:13:47;;;;;;;4.93;2.90;;;25.60;51.80;;;;;;4970362;28;114955;-77
2023/07/29 10:16:32;;;;;;;3.38;2.20;;;25.70;51.90;;;;;;4986285;28;114948;-78
2023/07/29 10:18:59;;;;;;;4.45;2.83;;;25.80;51.40;;;;;;4987681;28;114228;-79
2023/07/29 10:21:26;;;;;;;4.13;2.30;;;25.80;51.20;;;;;;4987980;28;114355;-78
2023/07/29 10:23:53;;;;;;;3.28;2.17;;;25.80;51.20;;;;;;4953840;28;114874;-78
2023/07/29 10:26:21;;;;;;;4.65;2.47;;;26.00;51.30;;;;;;4986930;28;114140;-77
2023/07/29 10:28:48;;;;;;;3.67;2.53;;;26.20;50.90;;;;;;4986616;28;114598;-77
2023/07/29 10:31:16;;;;;;;4.10;2.60;;;26.30;50.40;;;;;;4971420;28;114482;-78
2023/07/29 10:33:43;;;;;;;3.78;2.42;;;26.50;50.30;;;;;;4986653;28;114916;-77
2023/07/29 10:36:10;;;;;;;4.95;2.33;;;26.50;50.30;;;;;;4953276;28;116123;-77
2023/07/29 10:38:37;;;;;;;3.42;2.58;;;26.40;49.30;;;;;;4987327;28;114277;-80
2023/07/29 10:41:04;;;;;;;3.08;2.30;;;26.40;49.00;;;;;;4986988;28;114762;-78
2023/07/29 10:43:33;;;;;;;3.65;2.38;;;26.30;49.60;;;;;;4987084;28;115474;-78
2023/07/29 10:46:19;;;;;;;4.22;2.65;;;26.30;49.80;;;;;;4988230;28;114631;-78
2023/07/29 10:48:50;;;;;;;4.72;2.33;;;26.30;50.10;;;;;;4987321;28;114292;-78
2023/07/29 10:51:24;;;;;;;3.55;2.25;;;26.20;49.90;;;;;;4988503;28;114010;-78
2023/07/29 10:54:10;;;;;;;3.08;2.13;;;26.20;49.50;;;;;;4986097;28;114955;-78
2023/07/29 10:56:40;;;;;;;3.50;2.28;;;26.20;49.70;;;;;;4985747;28;114966;-78
2023/07/29 10:59:17;;;;;;;3.58;2.17;;;26.10;50.30;;;;;;4987788;28;114364;-78
2023/07/29 11:01:59;;;;;;;5.53;2.03;;;26.10;50.20;;;;;;4988069;28;114188;-78
2023/07/29 11:04:33;;;;;;;3.38;2.33;;;26.00;50.10;;;;;;4987463;28;115400;-77
2023/07/29 11:07:03;;;;;;;4.07;3.10;;;25.90;50.50;;;;;;4986852;28;114610;-78
2023/07/29 11:09:51;;;;;;;3.55;2.45;;;25.90;50.20;;;;;;4987582;28;114471;-78
2023/07/29 11:12:37;;;;;;;2.83;2.22;;;25.90;49.80;;;;;;4988394;28;114187;-78
2023/07/29 11:15:14;;;;;;;3.10;2.35;;;25.90;50.20;;;;;;4986908;28;114920;-78
2023/07/29 11:17:43;;;;;;;2.83;2.03;;;25.90;50.30;;;;;;4987088;28;114948;-77
2023/07/29 11:20:10;;;;;;;3.85;2.30;;;25.90;50.60;;;;;;4986130;28;114214;-78
2023/07/29 11:22:37;;;;;;;3.60;2.13;;;25.90;50.60;;;;;;4987245;28;114490;-79
2023/07/29 11:25:05;;;;;;;3.78;1.95;;;26.00;50.70;;;;;;4985600;28;115249;-78
2023/07/29 11:27:32;;;;;;;2.88;1.98;;;26.10;50.10;;;;;;4985000;28;114757;-77
2023/07/29 11:30:10;;;;;;;2.47;1.65;;;26.30;50.40;;;;;;4986544;28;114358;-77
2023/07/29 11:32:38;;;;;;;3.00;2.13;;;26.40;49.20;;;;;;4986177;28;114418;-77
2023/07/29 11:35:24;;;;;;;2.67;1.80;;;26.40;49.20;;;;;;4985219;28;115793;-78
2023/07/29 11:37:53;;;;;;;3.55;2.50;;;26.50;48.90;;;;;;4985664;28;114831;-78
2023/07/29 11:40:21;;;;;;;3.10;2.10;;;26.60;48.60;;;;;;4986246;28;114386;-78
2023/07/29 11:42:51;;;;;;;3.22;2.00;;;26.60;48.20;;;;;;4970183;28;114427;-78
2023/07/29 11:45:20;;;;;;;3.13;2.10;;;26.60;49.10;;;;;;4968820;28;117080;-78
2023/07/29 11:47:50;;;;;;;2.80;1.92;;;26.70;48.10;;;;;;4984659;28;115216;-78
2023/07/29 11:50:17;;;;;;;2.88;1.80;;;26.70;48.10;;;;;;4987216;28;114279;-77
2023/07/29 11:52:45;;;;;;;2.58;1.60;;;26.70;47.90;;;;;;4987525;28;114304;-78
2023/07/29 11:55:13;;;;;;;5.00;2.40;;;26.70;47.70;;;;;;4986518;28;115197;-78
2023/07/29 11:57:41;;;;;;;3.65;1.98;;;26.60;47.90;;;;;;4985139;28;115121;-78
2023/07/29 12:00:09;;;;;;;2.95;1.50;;;26.70;47.50;;;;;;4986923;28;114160;-78
2023/07/29 12:02:41;;;;;;;2.92;1.88;;;26.70;47.30;;;;;;4987212;28;114409;-79
2023/07/29 12:05:09;;;;;;;4.28;2.08;;;26.80;47.60;;;;;;4984802;28;114934;-79
2023/07/29 12:07:37;;;;;;;2.35;1.55;;;26.80;47.60;;;;;;4984650;28;114576;-78
2023/07/29 12:10:05;;;;;;;3.28;2.20;;;26.80;46.50;;;;;;4969478;28;114266;-78
2023/07/29 12:12:32;;;;;;;3.00;1.88;;;26.90;46.90;;;;;;4969221;28;114118;-78
2023/07/29 12:15:00;;;;;;;2.78;1.65;;;26.90;47.00;;;;;;4985835;28;114953;-78
2023/07/29 12:17:28;;;;;;;2.70;1.73;;;26.90;46.80;;;;;;4985212;28;114682;-79
2023/07/29 12:19:55;;;;;;;2.67;1.60;;;26.90;46.90;;;;;;4985465;28;114286;-79
2023/07/29 12:22:23;;;;;;;3.08;1.70;;;26.90;47.20;;;;;;4952723;28;114249;-78
2023/07/29 12:24:51;;;;;;;2.92;2.10;;;26.80;46.90;;;;;;4984717;28;115179;-78
2023/07/29 12:27:18;;;;;;;9.48;2.42;;;26.80;47.00;;;;;;4984397;28;115294;-78
2023/07/29 12:29:48;;;;;;;4.35;2.63;;;26.80;47.40;;;;;;4952443;28;114569;-78
2023/07/29 12:32:15;;;;;;;3.95;2.63;;;26.60;48.30;;;;;;4985420;28;114537;-78
2023/07/29 12:34:42;;;;;;;4.35;1.77;;;26.30;49.30;;;;;;4984989;28;114954;-78
2023/07/29 12:37:09;;;;;;;3.42;1.90;;;25.80;48.80;;;;;;4985724;28;114510;-78
2023/07/29 12:39:40;;;;;;;4.95;1.90;;;25.20;49.40;;;;;;4986630;28;114055;-78
2023/07/29 12:42:07;;;;;;;3.97;2.10;;;24.70;50.10;;;;;;4985128;28;114280;-78